Time;durP1;ratioP1;P1;durP2;ratioP2;P2;SDS_P1;SDS_P2;PMS_P1;PMS_P2;Temp;Humidity;BMP_temperature;BMP_pressure;BME280_temperature;BME280_humidity;BME280_pressure;Samples;Min_cycle;Max_cycle;Signal;HPM_P1;HPM_P2
2022/04/01 00:02:23;;;;;;;13.27;8.07;;;;;;;;;;5022601;28;20021;-78
2022/04/01 00:04:51;;;;;;;16.40;7.78;;;;;;;;;;5003110;28;20039;-80
2022/04/01 00:07:18;;;;;;;13.60;7.30;;;;;;;;;;5002894;28;20021;-81
2022/04/01 00:09:45;;;;;;;14.55;7.00;;;;;;;;;;5023151;28;20104;-81
2022/04/01 00:12:15;;;;;;;11.50;6.40;;;;;;;;;;5022299;28;20044;-80
2022/04/01 00:14:41;;;;;;;10.60;6.20;;;;;;;;;;5013373;28;20654;-78
2022/04/01 00:17:06;;;;;;;10.80;6.38;;;;;;;;;;5021313;28;20044;-81
2022/04/01 00:19:32;;;;;;;15.02;6.72;;;;;;;;;;5020741;28;21356;-81
2022/04/01 00:21:58;;;;;;;11.20;5.72;;;;;;;;;;5009104;28;20495;-83
2022/04/01 00:24:24;;;;;;;13.18;6.30;;;;;;;;;;5005058;28;20048;-82
2022/04/01 00:26:49;;;;;;;11.60;5.88;;;;;;;;;;5020072;28;20657;-81
2022/04/01 00:29:15;;;;;;;9.75;4.75;;;;;;;;;;5003738;28;20316;-81
2022/04/01 00:31:48;;;;;;;10.88;4.70;;;;;;;;;;5020651;28;20401;-81
2022/04/01 00:34:16;;;;;;;7.90;4.50;;;;;;;;;;5019281;28;20041;-81
2022/04/01 00:36:49;;;;;;;9.27;4.88;;;;;;;;;;5022877;28;20029;-80
2022/04/01 00:39:15;;;;;;;13.00;5.93;;;;;;;;;;5022337;28;20032;-80
2022/04/01 00:41:42;;;;;;;9.43;4.70;;;;;;;;;;5008707;28;20185;-81
2022/04/01 00:44:14;;;;;;;8.32;4.60;;;;;;;;;;5001891;28;20365;-80
2022/04/01 00:46:40;;;;;;;8.98;4.43;;;;;;;;;;5008575;28;20031;-79
2022/04/01 00:49:06;;;;;;;10.68;3.92;;;;;;;;;;5020355;28;20044;-79
2022/04/01 00:51:31;;;;;;;7.03;3.45;;;;;;;;;;5019498;28;20035;-80
2022/04/01 00:53:58;;;;;;;8.07;3.33;;;;;;;;;;5019842;28;20029;-81
2022/04/01 00:56:25;;;;;;;7.32;3.15;;;;;;;;;;5019932;28;20082;-80
2022/04/01 00:58:51;;;;;;;7.40;3.25;;;;;;;;;;5020419;28;20025;-80
2022/04/01 01:01:17;;;;;;;6.53;2.92;;;;;;;;;;5018984;28;20535;-80
2022/04/01 01:03:42;;;;;;;6.05;3.10;;;;;;;;;;5008106;28;20246;-79
2022/04/01 01:06:08;;;;;;;7.97;3.08;;;;;;;;;;4988071;28;20166;-80
2022/04/01 01:08:34;;;;;;;5.35;2.88;;;;;;;;;;4987961;28;21892;-81
2022/04/01 01:11:01;;;;;;;6.43;3.17;;;;;;;;;;5002322;28;20033;-80
2022/04/01 01:13:27;;;;;;;7.78;3.53;;;;;;;;;;4987599;28;20029;-79
2022/04/01 01:15:52;;;;;;;7.57;3.45;;;;;;;;;;5001944;28;20034;-78
2022/04/01 01:18:21;;;;;;;8.85;3.90;;;;;;;;;;5019042;28;20037;-79
2022/04/01 01:20:46;;;;;;;6.80;3.00;;;;;;;;;;5007208;28;20210;-79
2022/04/01 01:23:12;;;;;;;6.53;2.83;;;;;;;;;;4999388;28;20068;-79
2022/04/01 01:25:38;;;;;;;6.22;2.80;;;;;;;;;;5000020;28;20036;-79
2022/04/01 01:28:04;;;;;;;6.22;2.95;;;;;;;;;;5003084;28;20171;-78
2022/04/01 01:30:29;;;;;;;5.85;3.00;;;;;;;;;;4987021;28;20032;-77
2022/04/01 01:32:58;;;;;;;9.88;2.88;;;;;;;;;;5016342;28;20038;-78
2022/04/01 01:35:23;;;;;;;6.78;2.60;;;;;;;;;;5018189;28;20033;-78
2022/04/01 01:37:51;;;;;;;5.40;2.30;;;;;;;;;;5018196;28;20086;-78
2022/04/01 01:40:16;;;;;;;5.82;2.28;;;;;;;;;;5000585;28;20029;-77
2022/04/01 01:42:42;;;;;;;3.92;1.85;;;;;;;;;;5001516;28;20033;-78
2022/04/01 01:45:07;;;;;;;5.10;2.75;;;;;;;;;;5001937;28;20041;-77
2022/04/01 01:47:34;;;;;;;6.88;2.65;;;;;;;;;;5001850;28;20033;-76
2022/04/01 01:55:30;;;;;;;6.45;3.10;;;;;;;;;;5017010;28;20041;-77
2022/04/01 01:57:56;;;;;;;13.15;3.15;;;;;;;;;;4989958;28;20036;-76
2022/04/01 02:00:22;;;;;;;5.57;3.15;;;;;;;;;;4970058;28;20106;-76
2022/04/01 02:02:50;;;;;;;8.02;3.67;;;;;;;;;;5001862;28;20037;-76
2022/04/01 02:05:19;;;;;;;6.57;3.33;;;;;;;;;;4991136;28;20034;-76
2022/04/01 02:08:02;;;;;;;6.65;3.30;;;;;;;;;;4976593;28;20133;-75
2022/04/01 02:10:28;;;;;;;5.93;3.13;;;;;;;;;;4961320;28;20128;-75
2022/04/01 02:12:54;;;;;;;8.57;3.17;;;;;;;;;;4945225;28;21904;-76
2022/04/01 02:15:20;;;;;;;5.40;2.88;;;;;;;;;;4978564;28;20162;-75
2022/04/01 02:17:49;;;;;;;7.20;2.90;;;;;;;;;;4978596;28;20100;-76
2022/04/01 02:20:14;;;;;;;5.93;2.67;;;;;;;;;;4961946;28;20038;-75
2022/04/01 02:22:40;;;;;;;5.18;2.33;;;;;;;;;;4977248;28;20116;-76
2022/04/01 02:25:07;;;;;;;4.43;2.58;;;;;;;;;;4976904;28;20042;-76
2022/04/01 02:27:33;;;;;;;8.65;3.10;;;;;;;;;;4977048;28;20038;-74
2022/04/01 02:30:01;;;;;;;4.28;2.40;;;;;;;;;;4964629;28;20034;-75
2022/04/01 02:32:29;;;;;;;6.45;2.58;;;;;;;;;;4965028;28;20052;-74
2022/04/01 02:34:57;;;;;;;5.65;2.47;;;;;;;;;;4958915;28;20306;-74
2022/04/01 02:37:25;;;;;;;5.85;2.83;;;;;;;;;;4978066;28;20264;-74
2022/04/01 02:39:50;;;;;;;3.75;2.25;;;;;;;;;;4993987;28;20056;-74
2022/04/01 02:42:16;;;;;;;4.68;2.50;;;;;;;;;;5020060;28;20103;-74
2022/04/01 02:44:41;;;;;;;4.43;2.50;;;;;;;;;;5020245;28;20033;-74
2022/04/01 02:47:15;;;;;;;6.90;2.67;;;;;;;;;;5018373;28;20033;-74
2022/04/01 02:49:43;;;;;;;5.90;2.95;;;;;;;;;;5019443;28;20025;-75
2022/04/01 02:52:09;;;;;;;4.95;2.88;;;;;;;;;;5018228;28;20079;-74
2022/04/01 02:54:34;;;;;;;8.63;2.90;;;;;;;;;;5002300;28;20452;-74
2022/04/01 02:57:00;;;;;;;7.32;3.30;;;;;;;;;;5016314;28;20039;-74
2022/04/01 02:59:26;;;;;;;9.50;3.08;;;;;;;;;;5018136;28;20024;-74
2022/04/01 03:01:52;;;;;;;5.38;2.58;;;;;;;;;;5017251;28;20068;-74
2022/04/01 03:04:18;;;;;;;5.57;3.10;;;;;;;;;;5018597;28;20032;-74
2022/04/01 03:06:43;;;;;;;4.88;2.83;;;;;;;;;;5020505;28;20398;-75
2022/04/01 03:09:12;;;;;;;5.45;2.63;;;;;;;;;;5018197;28;20033;-75
2022/04/01 03:11:40;;;;;;;5.43;2.78;;;;;;;;;;5017729;28;20025;-75
2022/04/01 03:14:07;;;;;;;4.97;2.47;;;;;;;;;;5017311;28;20064;-74
2022/04/01 03:16:40;;;;;;;4.95;2.47;;;;;;;;;;5017901;28;20031;-74
2022/04/01 03:19:10;;;;;;;4.20;2.80;;;;;;;;;;5016631;28;20050;-73
2022/04/01 03:21:36;;;;;;;7.20;2.63;;;;;;;;;;5017457;28;20216;-74
2022/04/01 03:24:02;;;;;;;5.28;2.80;;;;;;;;;;5016464;28;20029;-73
2022/04/01 03:26:31;;;;;;;5.30;2.67;;;;;;;;;;5017539;28;20041;-72
2022/04/01 03:28:56;;;;;;;7.40;2.55;;;;;;;;;;5001855;28;20283;-73
2022/04/01 03:31:21;;;;;;;5.95;2.70;;;;;;;;;;4997749;28;20033;-73
2022/04/01 03:33:49;;;;;;;7.28;2.75;;;;;;;;;;5007071;28;20112;-73
2022/04/01 03:36:17;;;;;;;6.18;2.53;;;;;;;;;;5018051;28;20089;-73
2022/04/01 03:38:45;;;;;;;6.43;2.70;;;;;;;;;;4983805;28;20033;-73
2022/04/01 03:41:12;;;;;;;5.65;2.42;;;;;;;;;;4997513;28;21228;-75
2022/04/01 03:43:37;;;;;;;6.07;2.67;;;;;;;;;;4999433;28;20195;-73
2022/04/01 03:46:13;;;;;;;6.45;2.80;;;;;;;;;;5007998;28;21165;-73
2022/04/01 03:48:45;;;;;;;5.00;2.72;;;;;;;;;;5017233;28;20097;-73
2022/04/01 03:51:18;;;;;;;5.38;2.60;;;;;;;;;;5015957;28;20037;-73
2022/04/01 03:53:47;;;;;;;4.45;2.42;;;;;;;;;;4998698;28;20033;-73
2022/04/01 03:56:15;;;;;;;6.20;2.63;;;;;;;;;;4998925;28;20021;-73
2022/04/01 03:58:46;;;;;;;5.85;2.70;;;;;;;;;;4998854;28;20116;-75
2022/04/01 04:01:11;;;;;;;5.50;2.38;;;;;;;;;;5021391;28;20142;-74
2022/04/01 04:03:38;;;;;;;4.05;2.03;;;;;;;;;;5006978;28;20326;-73
2022/04/01 04:06:09;;;;;;;8.13;2.50;;;;;;;;;;5021901;28;20629;-73
2022/04/01 04:08:36;;;;;;;6.65;2.60;;;;;;;;;;5003996;28;20025;-73
2022/04/01 04:11:04;;;;;;;6.00;2.10;;;;;;;;;;5023627;28;20470;-73
2022/04/01 04:13:31;;;;;;;4.45;2.10;;;;;;;;;;5013443;28;20635;-74
2022/04/01 04:16:23;;;;;;;5.75;2.30;;;;;;;;;;5025103;28;20021;-75
2022/04/01 04:18:51;;;;;;;4.68;2.10;;;;;;;;;;5019331;28;20641;-74
2022/04/01 04:21:36;;;;;;;3.45;2.10;;;;;;;;;;5023638;28;20028;-74
2022/04/01 04:24:02;;;;;;;4.63;2.25;;;;;;;;;;4994055;28;20125;-74
2022/04/01 04:26:37;;;;;;;6.82;2.38;;;;;;;;;;5022313;28;20131;-73
2022/04/01 04:29:08;;;;;;;4.93;2.20;;;;;;;;;;5022473;28;20097;-73
2022/04/01 04:31:34;;;;;;;4.13;2.10;;;;;;;;;;5023483;28;20039;-74
2022/04/01 04:34:02;;;;;;;7.55;2.30;;;;;;;;;;5023437;28;20029;-74
2022/04/01 04:36:38;;;;;;;5.50;2.03;;;;;;;;;;5023993;28;20559;-72
2022/04/01 04:39:10;;;;;;;4.05;2.30;;;;;;;;;;5019694;28;20479;-74
2022/04/01 04:41:36;;;;;;;3.88;1.90;;;;;;;;;;5024127;28;20114;-73
2022/04/01 04:44:03;;;;;;;4.32;2.22;;;;;;;;;;5024633;28;20029;-73
2022/04/01 04:46:30;;;;;;;3.22;1.90;;;;;;;;;;5024200;28;20037;-74
2022/04/01 04:48:56;;;;;;;5.93;2.20;;;;;;;;;;5022541;28;20025;-74
2022/04/01 04:51:23;;;;;;;6.25;2.17;;;;;;;;;;5020050;28;20205;-73
2022/04/01 04:53:49;;;;;;;4.65;2.17;;;;;;;;;;5018867;28;20105;-73
2022/04/01 04:56:15;;;;;;;5.35;2.20;;;;;;;;;;5019722;28;20032;-73
2022/04/01 04:58:43;;;;;;;6.22;2.20;;;;;;;;;;5019441;28;20623;-73
2022/04/01 05:01:21;;;;;;;5.43;2.10;;;;;;;;;;5019261;28;20400;-73
2022/04/01 05:04:07;;;;;;;6.72;2.25;;;;;;;;;;5018124;28;20126;-74
2022/04/01 05:06:39;;;;;;;8.35;2.30;;;;;;;;;;5017864;28;20119;-73
2022/04/01 05:09:10;;;;;;;8.13;2.08;;;;;;;;;;5019832;28;20806;-73
2022/04/01 05:11:35;;;;;;;5.10;1.90;;;;;;;;;;5017646;28;20055;-73
2022/04/01 05:14:11;;;;;;;5.53;2.15;;;;;;;;;;5019342;28;20585;-73
2022/04/01 05:16:47;;;;;;;3.83;2.10;;;;;;;;;;5011051;28;20120;-74
2022/04/01 05:19:17;;;;;;;5.43;1.98;;;;;;;;;;5018389;28;20055;-71
2022/04/01 05:21:43;;;;;;;4.57;1.73;;;;;;;;;;5018360;28;20139;-71
2022/04/01 05:24:12;;;;;;;3.28;1.98;;;;;;;;;;4999979;28;20455;-72
2022/04/01 05:26:40;;;;;;;6.47;2.15;;;;;;;;;;5001091;28;20174;-72
2022/04/01 05:29:09;;;;;;;4.13;1.67;;;;;;;;;;5018695;28;20214;-72
2022/04/01 05:31:42;;;;;;;4.93;1.80;;;;;;;;;;4999678;28;20481;-70
2022/04/01 05:34:13;;;;;;;5.07;1.88;;;;;;;;;;5007245;28;20033;-72
2022/04/01 05:36:39;;;;;;;6.10;1.80;;;;;;;;;;5017940;28;20290;-71
2022/04/01 05:39:05;;;;;;;6.13;2.08;;;;;;;;;;5017089;28;20029;-71
2022/04/01 05:41:30;;;;;;;6.03;1.70;;;;;;;;;;5000437;28;20071;-72
2022/04/01 05:43:57;;;;;;;7.38;1.73;;;;;;;;;;4999026;28;20284;-72
2022/04/01 05:46:24;;;;;;;4.28;1.73;;;;;;;;;;5016340;28;20025;-73
2022/04/01 05:48:49;;;;;;;5.13;1.90;;;;;;;;;;5000739;28;20073;-71
2022/04/01 05:51:15;;;;;;;5.43;1.90;;;;;;;;;;5014380;28;20033;-72
2022/04/01 05:53:45;;;;;;;4.18;1.90;;;;;;;;;;5015498;28;20488;-71
2022/04/01 05:56:11;;;;;;;6.72;2.20;;;;;;;;;;5017222;28;20029;-72
2022/04/01 05:58:36;;;;;;;8.65;2.08;;;;;;;;;;5000018;28;20443;-71
2022/04/01 06:01:19;;;;;;;3.28;1.42;;;;;;;;;;4999298;28;20030;-71
2022/04/01 06:03:45;;;;;;;5.45;1.85;;;;;;;;;;5018527;28;20048;-71
2022/04/01 06:06:28;;;;;;;4.63;1.83;;;;;;;;;;4982505;28;20040;-73
2022/04/01 06:09:02;;;;;;;3.33;2.10;;;;;;;;;;5017731;28;20020;-72
2022/04/01 06:11:28;;;;;;;6.95;1.92;;;;;;;;;;5016074;28;20037;-71
2022/04/01 06:14:02;;;;;;;4.28;2.00;;;;;;;;;;4999041;28;20025;-71
2022/04/01 06:16:57;;;;;;;5.90;1.95;;;;;;;;;;5015379;28;20223;-70
2022/04/01 06:19:42;;;;;;;6.05;1.55;;;;;;;;;;4984231;28;20299;-72
2022/04/01 06:22:12;;;;;;;5.75;1.98;;;;;;;;;;5017099;28;20032;-71
2022/04/01 06:24:47;;;;;;;5.03;1.80;;;;;;;;;;5015625;28;20091;-72
2022/04/01 06:27:25;;;;;;;5.40;1.98;;;;;;;;;;5016236;28;20051;-72
2022/04/01 06:30:02;;;;;;;4.75;1.60;;;;;;;;;;5016247;28;20275;-72
2022/04/01 06:32:36;;;;;;;7.85;2.55;;;;;;;;;;5001448;28;20051;-73
2022/04/01 06:35:03;;;;;;;6.68;2.03;;;;;;;;;;5015570;28;22162;-73
2022/04/01 06:37:32;;;;;;;4.70;1.55;;;;;;;;;;5016412;28;20171;-73
2022/04/01 06:40:03;;;;;;;4.18;1.95;;;;;;;;;;5013673;28;20056;-72
2022/04/01 06:42:31;;;;;;;4.85;1.60;;;;;;;;;;5015733;28;20108;-71
2022/04/01 06:44:57;;;;;;;6.03;1.80;;;;;;;;;;5014062;28;20017;-72
2022/04/01 06:47:22;;;;;;;4.15;1.70;;;;;;;;;;5016000;28;20613;-73
2022/04/01 06:49:50;;;;;;;6.43;1.63;;;;;;;;;;5015840;28;20021;-72
2022/04/01 06:52:16;;;;;;;3.80;1.55;;;;;;;;;;5017077;28;20022;-72
2022/04/01 06:54:41;;;;;;;6.00;1.50;;;;;;;;;;4996286;28;20284;-72
2022/04/01 06:57:06;;;;;;;3.67;1.20;;;;;;;;;;5015200;28;20032;-74
2022/04/01 06:59:34;;;;;;;4.47;1.20;;;;;;;;;;4983015;28;20322;-72
2022/04/01 07:02:01;;;;;;;9.45;1.92;;;;;;;;;;5019556;28;20504;-73
2022/04/01 07:04:32;;;;;;;2.95;1.42;;;;;;;;;;4998362;28;20363;-73
2022/04/01 07:07:00;;;;;;;3.20;1.02;;;;;;;;;;4998766;28;20128;-73
2022/04/01 07:09:25;;;;;;;3.30;1.40;;;;;;;;;;4982539;28;20701;-74
2022/04/01 07:11:53;;;;;;;8.25;1.48;;;;;;;;;;5017147;28;20517;-72
2022/04/01 07:14:19;;;;;;;4.13;1.45;;;;;;;;;;4998397;28;20033;-71
2022/04/01 07:16:45;;;;;;;4.05;1.50;;;;;;;;;;4984370;28;20052;-72
2022/04/01 07:19:11;;;;;;;5.13;1.67;;;;;;;;;;5015932;28;20145;-73
2022/04/01 07:21:36;;;;;;;5.07;1.50;;;;;;;;;;4987746;28;20048;-72
2022/04/01 07:24:02;;;;;;;10.15;1.60;;;;;;;;;;5016101;28;20033;-72
2022/04/01 07:26:27;;;;;;;9.15;1.40;;;;;;;;;;5015481;28;20036;-76
2022/04/01 07:28:54;;;;;;;6.72;1.42;;;;;;;;;;5005631;28;20033;-77
2022/04/01 07:34:04;;;;;;;4.82;1.60;;;;;;;;;;5016826;28;20206;-76
2022/04/01 07:36:33;;;;;;;4.70;1.80;;;;;;;;;;5000000;28;20131;-78
2022/04/01 07:39:00;;;;;;;4.97;1.98;;;;;;;;;;5019954;28;20025;-76
2022/04/01 07:41:29;;;;;;;4.75;1.80;;;;;;;;;;5020874;28;20570;-71
2022/04/01 07:43:54;;;;;;;7.40;2.10;;;;;;;;;;5019620;28;20043;-72
2022/04/01 07:46:19;;;;;;;5.50;1.77;;;;;;;;;;5018507;28;20101;-72
2022/04/01 07:48:45;;;;;;;4.15;2.00;;;;;;;;;;5020013;28;20040;-71
2022/04/01 07:51:15;;;;;;;6.63;2.10;;;;;;;;;;5006461;28;20446;-71
2022/04/01 07:53:40;;;;;;;8.57;2.40;;;;;;;;;;5004685;28;20475;-71
2022/04/01 07:56:06;;;;;;;10.52;2.00;;;;;;;;;;5001899;28;20087;-70
2022/04/01 07:58:32;;;;;;;7.57;1.88;;;;;;;;;;5019941;28;20030;-71
2022/04/01 08:00:59;;;;;;;4.25;1.88;;;;;;;;;;4993252;28;20299;-74
2022/04/01 08:03:26;;;;;;;4.53;1.95;;;;;;;;;;5009463;28;20043;-76
2022/04/01 08:05:52;;;;;;;9.70;2.20;;;;;;;;;;5003821;28;20029;-76
2022/04/01 08:08:20;;;;;;;10.23;2.40;;;;;;;;;;5022090;28;20040;-76
2022/04/01 08:10:49;;;;;;;5.65;1.65;;;;;;;;;;5005446;28;20910;-76
2022/04/01 08:13:14;;;;;;;3.05;1.80;;;;;;;;;;5023313;28;20435;-78
2022/04/01 08:15:42;;;;;;;5.80;2.30;;;;;;;;;;5023730;28;20035;-77
2022/04/01 08:18:07;;;;;;;5.88;2.00;;;;;;;;;;5022352;28;20210;-76
2022/04/01 08:20:34;;;;;;;7.75;2.45;;;;;;;;;;5022840;28;20267;-75
2022/04/01 08:22:59;;;;;;;9.13;2.45;;;;;;;;;;5021441;28;20088;-76
2022/04/01 08:25:25;;;;;;;5.85;2.05;;;;;;;;;;5020689;28;20777;-76
2022/04/01 08:27:50;;;;;;;5.80;2.20;;;;;;;;;;5019490;28;20496;-75
2022/04/01 08:30:18;;;;;;;8.68;2.38;;;;;;;;;;5010547;28;20453;-75
2022/04/01 08:32:46;;;;;;;6.70;2.17;;;;;;;;;;5003683;28;20037;-76
2022/04/01 08:35:13;;;;;;;5.63;2.20;;;;;;;;;;4990950;28;20094;-76
2022/04/01 08:37:39;;;;;;;6.47;2.00;;;;;;;;;;5009752;28;20029;-74
2022/04/01 08:40:05;;;;;;;6.40;2.17;;;;;;;;;;5022133;28;20373;-73
2022/04/01 08:42:32;;;;;;;8.73;2.33;;;;;;;;;;5026879;28;20029;-73
2022/04/01 08:44:57;;;;;;;7.97;1.88;;;;;;;;;;5029183;28;20021;-76
2022/04/01 08:47:23;;;;;;;6.20;2.10;;;;;;;;;;5013076;28;20235;-75
2022/04/01 08:49:48;;;;;;;5.72;2.00;;;;;;;;;;5020839;28;20336;-74
2022/04/01 08:52:14;;;;;;;7.28;2.15;;;;;;;;;;5022395;28;20083;-74
2022/04/01 08:54:40;;;;;;;8.02;2.35;;;;;;;;;;5008348;28;20711;-74
2022/04/01 08:57:08;;;;;;;7.72;2.10;;;;;;;;;;5031325;28;20047;-74
2022/04/01 08:59:37;;;;;;;6.22;1.95;;;;;;;;;;5035393;28;20120;-73
2022/04/01 09:02:07;;;;;;;6.53;2.20;;;;;;;;;;5031111;28;20045;-74
2022/04/01 09:04:32;;;;;;;5.63;2.00;;;;;;;;;;5028709;28;20107;-73
2022/04/01 09:07:13;;;;;;;4.75;1.90;;;;;;;;;;5024516;28;20095;-72
2022/04/01 09:09:39;;;;;;;6.05;1.92;;;;;;;;;;5024064;28;20516;-72
2022/04/01 09:12:08;;;;;;;5.10;1.80;;;;;;;;;;5023635;28;21927;-73
2022/04/01 09:14:37;;;;;;;9.07;2.60;;;;;;;;;;5022482;28;20036;-74
2022/04/01 09:17:03;;;;;;;5.90;2.40;;;;;;;;;;5026013;28;20035;-74
2022/04/01 09:19:33;;;;;;;9.60;2.85;;;;;;;;;;5001093;28;20053;-73
2022/04/01 09:22:18;;;;;;;5.15;2.20;;;;;;;;;;4999975;28;20041;-71
2022/04/01 09:24:53;;;;;;;4.95;2.10;;;;;;;;;;4997745;28;20029;-73
2022/04/01 09:27:19;;;;;;;7.80;2.60;;;;;;;;;;5000038;28;20064;-70
2022/04/01 09:29:44;;;;;;;6.85;2.38;;;;;;;;;;4998964;28;20113;-70
2022/04/01 09:32:09;;;;;;;4.68;2.00;;;;;;;;;;4998647;28;20037;-69
2022/04/01 09:34:37;;;;;;;6.90;2.40;;;;;;;;;;4999773;28;20128;-68
2022/04/01 09:37:02;;;;;;;5.88;2.17;;;;;;;;;;5000066;28;20057;-68
2022/04/01 09:39:30;;;;;;;9.55;2.60;;;;;;;;;;5000332;28;20132;-68
2022/04/01 09:41:58;;;;;;;6.65;2.05;;;;;;;;;;4999812;28;20035;-69
2022/04/01 09:44:29;;;;;;;4.43;2.00;;;;;;;;;;4998462;28;20038;-70
2022/04/01 09:47:05;;;;;;;5.55;2.40;;;;;;;;;;4981553;28;20038;-69
2022/04/01 09:49:33;;;;;;;7.20;1.83;;;;;;;;;;4998660;28;20029;-72
2022/04/01 09:51:58;;;;;;;5.97;2.60;;;;;;;;;;4999287;28;20059;-70
2022/04/01 09:54:24;;;;;;;7.40;2.33;;;;;;;;;;4997190;28;20029;-70
2022/04/01 09:56:54;;;;;;;6.22;2.10;;;;;;;;;;4999198;28;20037;-71
2022/04/01 09:59:21;;;;;;;4.15;2.00;;;;;;;;;;4998721;28;21890;-71
2022/04/01 10:01:47;;;;;;;5.85;2.22;;;;;;;;;;4999642;28;20079;-74
2022/04/01 10:04:13;;;;;;;6.00;2.45;;;;;;;;;;4994374;28;20034;-73
2022/04/01 10:06:40;;;;;;;6.03;2.40;;;;;;;;;;4982470;28;20029;-74
2022/04/01 10:09:07;;;;;;;4.13;2.05;;;;;;;;;;4998368;28;20045;-75
2022/04/01 10:11:35;;;;;;;5.38;2.35;;;;;;;;;;4969786;28;20875;-77
2022/04/01 10:14:03;;;;;;;6.97;2.17;;;;;;;;;;4999044;28;20029;-77
2022/04/01 10:16:31;;;;;;;6.63;2.35;;;;;;;;;;4998191;28;20082;-76
2022/04/01 10:18:59;;;;;;;5.00;2.40;;;;;;;;;;5012264;28;20049;-76
2022/04/01 10:21:25;;;;;;;5.72;2.45;;;;;;;;;;5005740;28;20253;-77
2022/04/01 10:24:06;;;;;;;5.85;2.42;;;;;;;;;;5018250;28;20362;-78
2022/04/01 10:26:33;;;;;;;4.83;2.27;;;;;;;;;;5002034;28;20033;-78
2022/04/01 10:28:58;;;;;;;7.13;2.20;;;;;;;;;;5016247;28;20041;-77
2022/04/01 10:31:25;;;;;;;8.18;2.22;;;;;;;;;;5017726;28;20033;-76
2022/04/01 10:33:51;;;;;;;5.30;2.67;;;;;;;;;;5018420;28;20231;-77
2022/04/01 10:36:19;;;;;;;5.25;2.28;;;;;;;;;;5017872;28;20040;-76
2022/04/01 10:38:47;;;;;;;6.03;2.20;;;;;;;;;;5016778;28;20539;-77
2022/04/01 10:41:13;;;;;;;6.22;2.20;;;;;;;;;;5016292;28;20053;-77
2022/04/01 10:43:40;;;;;;;7.38;2.60;;;;;;;;;;4998080;28;20660;-78
2022/04/01 10:46:05;;;;;;;12.70;2.30;;;;;;;;;;4997963;28;20043;-79
2022/04/01 10:51:37;;;;;;;4.43;2.00;;;;;;;;;;5016204;28;20476;-80
2022/04/01 10:54:12;;;;;;;4.50;1.70;;;;;;;;;;5015777;28;20361;-79
2022/04/01 10:56:38;;;;;;;6.60;1.95;;;;;;;;;;5016898;28;20059;-79
2022/04/01 10:59:09;;;;;;;5.60;2.03;;;;;;;;;;5017705;28;20071;-79
2022/04/01 11:01:35;;;;;;;5.13;1.95;;;;;;;;;;5005109;28;21970;-79
2022/04/01 11:04:13;;;;;;;5.45;2.13;;;;;;;;;;5017096;28;20045;-77
2022/04/01 11:06:58;;;;;;;5.40;2.28;;;;;;;;;;4999231;28;20036;-79
2022/04/01 11:09:35;;;;;;;5.45;2.17;;;;;;;;;;5017807;28;20041;-77
2022/04/01 11:12:21;;;;;;;12.57;2.30;;;;;;;;;;4998687;28;20086;-78
2022/04/01 11:14:53;;;;;;;6.82;1.90;;;;;;;;;;4998725;28;20043;-77
2022/04/01 11:17:18;;;;;;;4.93;1.80;;;;;;;;;;5017044;28;20044;-76
2022/04/01 11:20:03;;;;;;;5.43;2.72;;;;;;;;;;5017452;28;20037;-75
2022/04/01 11:22:34;;;;;;;8.48;2.05;;;;;;;;;;5016526;28;20041;-75
2022/04/01 11:24:59;;;;;;;5.03;1.88;;;;;;;;;;5015478;28;20518;-75
2022/04/01 11:27:27;;;;;;;4.55;1.90;;;;;;;;;;5016447;28;20025;-73
2022/04/01 11:30:08;;;;;;;3.88;1.92;;;;;;;;;;5017057;28;20025;-75
2022/04/01 11:32:35;;;;;;;4.10;2.10;;;;;;;;;;5001594;28;20024;-76
2022/04/01 11:35:00;;;;;;;4.43;2.17;;;;;;;;;;5016195;28;20328;-75
2022/04/01 11:37:26;;;;;;;5.03;2.00;;;;;;;;;;5018000;28;20030;-77
2022/04/01 11:39:51;;;;;;;6.45;2.03;;;;;;;;;;5016965;28;20530;-76
2022/04/01 11:42:16;;;;;;;7.22;2.47;;;;;;;;;;5017987;28;20135;-68
2022/04/01 11:44:56;;;;;;;5.63;2.58;;;;;;;;;;5000128;28;20037;-70
2022/04/01 11:47:25;;;;;;;4.22;1.90;;;;;;;;;;5017535;28;20063;-70
2022/04/01 11:50:04;;;;;;;5.55;2.20;;;;;;;;;;5001683;28;20121;-68
2022/04/01 11:52:40;;;;;;;5.28;2.00;;;;;;;;;;4999750;28;20124;-70
2022/04/01 11:55:13;;;;;;;5.13;2.38;;;;;;;;;;5017209;28;20073;-68
2022/04/01 11:57:38;;;;;;;;;;;;;;;;;;5007080;28;20029;-70
2022/04/01 12:00:11;;;;;;;4.88;1.85;;;;;;;;;;5002225;28;19995;-67
2022/04/01 12:02:37;;;;;;;4.05;2.05;;;;;;;;;;5017701;28;20496;-69
2022/04/01 12:05:02;;;;;;;4.95;1.85;;;;;;;;;;5016856;28;20092;-76
2022/04/01 12:10:18;;;;;;;4.13;1.85;;;;;;;;;;5001867;28;20037;-75
2022/04/01 12:12:58;;;;;;;6.82;2.33;;;;;;;;;;5017013;28;20053;-77
2022/04/01 12:15:36;;;;;;;4.13;1.83;;;;;;;;;;5016104;28;20042;-76
2022/04/01 12:18:05;;;;;;;3.90;1.80;;;;;;;;;;5016371;28;20049;-77
2022/04/01 12:20:31;;;;;;;5.35;1.60;;;;;;;;;;5017200;28;20033;-76
2022/04/01 12:23:00;;;;;;;4.90;1.90;;;;;;;;;;5001058;28;20754;-77
2022/04/01 12:25:29;;;;;;;4.68;1.80;;;;;;;;;;5020330;28;20055;-76
2022/04/01 12:27:57;;;;;;;7.60;2.38;;;;;;;;;;5020394;28;20345;-77
2022/04/01 12:30:26;;;;;;;5.43;2.15;;;;;;;;;;5019542;28;20032;-79
2022/04/01 12:32:56;;;;;;;4.97;2.20;;;;;;;;;;4985011;28;20563;-77
2022/04/01 12:35:22;;;;;;;5.72;2.38;;;;;;;;;;5020535;28;20068;-68
2022/04/01 12:38:03;;;;;;;7.53;4.57;;;;;;;;;;5009165;28;20120;-68
2022/04/01 12:40:47;;;;;;;5.68;1.90;;;;;;;;;;5002963;28;20067;-68
2022/04/01 12:43:31;;;;;;;6.00;1.75;;;;;;;;;;5019832;28;20094;-68
2022/04/01 12:45:57;;;;;;;8.43;1.90;;;;;;;;;;5002338;28;20244;-69
2022/04/01 12:48:24;;;;;;;8.18;2.00;;;;;;;;;;5021012;28;20057;-68
2022/04/01 12:50:49;;;;;;;4.80;1.90;;;;;;;;;;5020875;28;20097;-67
2022/04/01 12:53:16;;;;;;;5.93;2.08;;;;;;;;;;5020155;28;20405;-68
2022/04/01 12:55:42;;;;;;;3.50;1.80;;;;;;;;;;5020218;28;20051;-68
2022/04/01 12:58:12;;;;;;;4.25;1.83;;;;;;;;;;5003212;28;20029;-68
2022/04/01 13:00:40;;;;;;;3.65;1.70;;;;;;;;;;5001940;28;20156;-68
2022/04/01 13:03:06;;;;;;;4.60;1.77;;;;;;;;;;5020641;28;20044;-67
2022/04/01 13:05:32;;;;;;;4.70;1.50;;;;;;;;;;5020388;28;20041;-69
2022/04/01 13:07:58;;;;;;;5.85;2.22;;;;;;;;;;5020678;28;20030;-68
2022/04/01 13:10:24;;;;;;;5.32;2.17;;;;;;;;;;5020707;28;20055;-68
2022/04/01 13:12:52;;;;;;;4.75;2.25;;;;;;;;;;5020149;28;20037;-68
2022/04/01 13:15:20;;;;;;;5.55;1.73;;;;;;;;;;5021104;28;20092;-67
2022/04/01 13:17:46;;;;;;;4.72;1.90;;;;;;;;;;5020120;28;20229;-68
2022/04/01 13:20:14;;;;;;;7.00;1.60;;;;;;;;;;5019919;28;20029;-68
2022/04/01 13:22:40;;;;;;;5.13;1.85;;;;;;;;;;5021142;28;20033;-67
2022/04/01 13:25:06;;;;;;;2.70;1.70;;;;;;;;;;5006940;28;20707;-67
2022/04/01 13:27:33;;;;;;;5.97;1.90;;;;;;;;;;5020357;28;20028;-67
2022/04/01 13:29:59;;;;;;;4.18;1.50;;;;;;;;;;5020607;28;20475;-68
2022/04/01 13:32:24;;;;;;;4.63;1.85;;;;;;;;;;5020996;28;20029;-68
2022/04/01 13:34:52;;;;;;;4.53;1.80;;;;;;;;;;5019422;28;20304;-68
2022/04/01 13:37:17;;;;;;;6.78;1.85;;;;;;;;;;5021178;28;20057;-69
2022/04/01 13:39:43;;;;;;;4.28;1.70;;;;;;;;;;5020345;28;20119;-69
2022/04/01 13:42:11;;;;;;;4.97;1.83;;;;;;;;;;5021525;28;20040;-69
2022/04/01 13:44:37;;;;;;;7.72;1.70;;;;;;;;;;5020921;28;20045;-69
2022/04/01 13:47:03;;;;;;;5.10;2.22;;;;;;;;;;5020652;28;20038;-67
2022/04/01 13:49:28;;;;;;;5.43;1.35;;;;;;;;;;5018298;28;20025;-69
2022/04/01 13:51:57;;;;;;;4.28;1.50;;;;;;;;;;5020626;28;20041;-69
2022/04/01 13:54:22;;;;;;;4.20;1.77;;;;;;;;;;5020022;28;20029;-68
2022/04/01 13:56:48;;;;;;;4.55;1.63;;;;;;;;;;5021040;28;20063;-68
2022/04/01 13:59:13;;;;;;;7.22;1.60;;;;;;;;;;5020634;28;20033;-69
2022/04/01 14:01:41;;;;;;;6.18;1.80;;;;;;;;;;5018642;28;20178;-67
2022/04/01 14:04:07;;;;;;;4.22;1.67;;;;;;;;;;5019778;28;20103;-69
2022/04/01 14:06:34;;;;;;;5.25;1.70;;;;;;;;;;5018306;28;20032;-67
2022/04/01 14:08:59;;;;;;;4.70;1.40;;;;;;;;;;5008404;28;20030;-67
2022/04/01 14:11:24;;;;;;;4.30;1.52;;;;;;;;;;5018466;28;20569;-68
2022/04/01 14:13:50;;;;;;;4.55;1.55;;;;;;;;;;5019564;28;20035;-68
2022/04/01 14:16:16;;;;;;;6.00;1.90;;;;;;;;;;5015850;28;22560;-68
2022/04/01 14:18:41;;;;;;;7.25;2.03;;;;;;;;;;5014350;28;20471;-67
2022/04/01 14:21:06;;;;;;;4.45;1.38;;;;;;;;;;5000325;28;20041;-66
2022/04/01 14:23:32;;;;;;;5.35;1.50;;;;;;;;;;4999977;28;20152;-67
2022/04/01 14:25:58;;;;;;;6.35;1.88;;;;;;;;;;4999430;28;20033;-67
2022/04/01 14:28:24;;;;;;;5.45;1.70;;;;;;;;;;4999656;28;20026;-67
2022/04/01 14:30:50;;;;;;;5.10;1.42;;;;;;;;;;4998157;28;20025;-67
2022/04/01 14:33:15;;;;;;;4.50;1.77;;;;;;;;;;4999090;28;20048;-67
2022/04/01 14:35:41;;;;;;;2.83;1.40;;;;;;;;;;5000102;28;20021;-68
2022/04/01 14:38:08;;;;;;;6.38;1.60;;;;;;;;;;4998835;28;20117;-68
2022/04/01 14:40:34;;;;;;;3.35;1.30;;;;;;;;;;5000680;28;20022;-67
2022/04/01 14:43:00;;;;;;;5.70;1.45;;;;;;;;;;4998906;28;20758;-68
2022/04/01 14:45:26;;;;;;;3.20;1.73;;;;;;;;;;4998557;28;20079;-68
2022/04/01 14:47:51;;;;;;;6.13;1.10;;;;;;;;;;5000668;28;20048;-68
2022/04/01 14:50:19;;;;;;;2.90;1.25;;;;;;;;;;4998845;28;20044;-68
2022/04/01 14:52:45;;;;;;;3.92;1.42;;;;;;;;;;4999331;28;20476;-67
2022/04/01 14:55:11;;;;;;;4.70;1.40;;;;;;;;;;4998637;28;20273;-68
2022/04/01 14:57:37;;;;;;;4.00;1.30;;;;;;;;;;4968714;28;20121;-67
2022/04/01 15:00:03;;;;;;;4.05;1.40;;;;;;;;;;4998615;28;20033;-67
2022/04/01 15:02:28;;;;;;;4.72;1.40;;;;;;;;;;5000098;28;20117;-68
2022/04/01 15:04:55;;;;;;;2.85;1.20;;;;;;;;;;4998414;28;20143;-67